Terminal Aerodrome Forecast
Issued by NWS Boston, MA

Home | Current Version | Previous Version | Text Only | Print | Product List | Glossary On
Versions: 1 2 3 4 5 6 7 8 9 10 11 12 13 14 15 16 17 18 19 20 21 22 23 24
000
FTUS41 KBOX 251125
TAFBOS
TAF
KBOS 251125Z 2512/2618 27010KT P6SM FEW250
     FM251800 23010G17KT P6SM BKN070
     FM260200 25010KT P6SM BKN070
     FM260800 27006KT P6SM FEW200=

USA.gov is the U.S. government's official web portal to all federal, state and local government web resources and services.